首页
METAR-TAF:

METAR-TAF

机场 :

Wausau, 威斯康辛州, 美国

纬度: 44-55-43N, 经度: 089-37-36W, 海拔: 366米

当前天气观测

该预报发布于39分钟前的07:54 UTC
风速4节,风向北转西北
温度 13°C
湿度 88%
气压 1015 hPa
能見度: 16.1公里
天空无云

METAR: KAUW 190754Z AUTO 33004KT 10SM CLR 13/11 A2996 RMK AO2 SLP147 T01280111

时间: 03:33 (08:33 UTC)

预报

该预报发布于3小时和13分钟前的05:20 UTC
预报有效从19日的 06点(UTC)到 20日的 06点(UTC)
风速4节,风向西转西北
能見度: 10公里
天空无云
从 19日的 1500点(UTC)
风速7节,风向西南
能見度: 10公里
少量云层高于4000英尺
从 20日的 0100点(UTC)
风速3节,风向南转西南
能見度: 10公里
天空无云

TAF: KAUW 190520Z 1906/2006 30004KT P6SM SKC FM191500 23007KT P6SM FEW040 FM200100 21003KT P6SM SKC

超过4000个机场的气象观测和天气预报(METAR&TAF报告)。

可查询的气象台以黄色和红色小点在地图上表示。

将鼠标移到小点上方,可查看气象台名称。

然后点击查看天气观测和预报。

如需切换地图:点击带黑十字的绿色按钮放大地图;点击带横线的绿色按钮缩小地图;或者点击绿色箭头查看邻近地区的地图。


METAR-TAF: